createdAt,value
2023-05-23T00:02:18.783Z,100.00
2023-05-23T00:04:46.189Z,100.00
2023-05-23T00:07:13.458Z,100.00
2023-05-23T00:09:40.696Z,100.00
2023-05-23T00:12:08.754Z,100.00
2023-05-23T00:14:36.099Z,100.00
2023-05-23T00:17:03.659Z,100.00
2023-05-23T00:19:36.494Z,100.00
2023-05-23T00:22:04.404Z,100.00
2023-05-23T00:24:31.662Z,100.00
2023-05-23T00:26:59.045Z,100.00
2023-05-23T00:29:26.334Z,100.00
2023-05-23T00:31:53.603Z,100.00
2023-05-23T00:34:20.850Z,100.00
2023-05-23T00:36:50.259Z,100.00
2023-05-23T00:39:21.043Z,100.00
2023-05-23T00:41:53.187Z,100.00
2023-05-23T00:44:22.100Z,100.00
2023-05-23T00:46:56.646Z,100.00
2023-05-23T00:49:24.789Z,100.00
2023-05-23T00:51:52.583Z,100.00
2023-05-23T00:54:31.359Z,100.00
2023-05-23T00:56:59.630Z,100.00
2023-05-23T00:59:27.350Z,100.00
2023-05-23T01:01:57.289Z,100.00
2023-05-23T01:04:28.239Z,100.00
2023-05-23T01:06:56.536Z,100.00
2023-05-23T01:09:30.882Z,100.00
2023-05-23T01:12:20.879Z,100.00
2023-05-23T01:14:59.940Z,100.00
2023-05-23T01:17:55.543Z,100.00
2023-05-23T01:20:30.234Z,100.00
2023-05-23T01:23:00.924Z,100.00
2023-05-23T01:26:02.696Z,100.00
2023-05-23T01:28:45.703Z,100.00
2023-05-23T01:31:14.087Z,100.00
2023-05-23T01:33:42.087Z,100.00
2023-05-23T01:36:13.414Z,100.00
2023-05-23T01:38:40.608Z,100.00
2023-05-23T01:41:07.811Z,100.00
2023-05-23T01:43:35.564Z,100.00
2023-05-23T01:46:04.867Z,100.00
2023-05-23T01:48:32.972Z,100.00
2023-05-23T01:51:00.384Z,100.00
2023-05-23T01:53:28.968Z,100.00
2023-05-23T01:55:56.459Z,100.00
2023-05-23T01:58:23.988Z,100.00
2023-05-23T02:00:51.619Z,100.00
2023-05-23T02:03:19.320Z,100.00
2023-05-23T02:05:46.664Z,100.00
2023-05-23T02:08:13.908Z,100.00
2023-05-23T02:10:41.323Z,100.00
2023-05-23T02:13:08.896Z,100.00
2023-05-23T02:15:36.201Z,100.00
2023-05-23T02:18:04.271Z,100.00
2023-05-23T02:20:31.715Z,100.00
2023-05-23T02:22:59.107Z,100.00
2023-05-23T02:25:26.746Z,100.00
2023-05-23T02:27:54.185Z,100.00
2023-05-23T02:30:22.219Z,100.00
2023-05-23T02:32:51.611Z,100.00
2023-05-23T02:35:19.026Z,100.00
2023-05-23T02:37:46.272Z,100.00
2023-05-23T02:40:13.913Z,100.00
2023-05-23T02:42:41.796Z,100.00
2023-05-23T02:45:10.035Z,100.00
2023-05-23T02:47:37.875Z,100.00
2023-05-23T02:50:06.452Z,100.00
2023-05-23T02:52:34.114Z,100.00
2023-05-23T02:55:01.866Z,100.00
2023-05-23T02:57:31.644Z,100.00
2023-05-23T02:59:58.904Z,100.00
2023-05-23T03:02:27.249Z,100.00
2023-05-23T03:04:56.023Z,100.00
2023-05-23T03:07:27.989Z,100.00
2023-05-23T03:09:56.568Z,100.00
2023-05-23T03:12:23.721Z,100.00
2023-05-23T03:14:51.003Z,100.00
2023-05-23T03:17:18.344Z,100.00
2023-05-23T03:19:45.995Z,100.00
2023-05-23T03:22:13.253Z,100.00
2023-05-23T03:24:40.546Z,100.00
2023-05-23T03:27:07.744Z,100.00
2023-05-23T03:29:34.984Z,100.00
2023-05-23T03:32:03.099Z,100.00
2023-05-23T03:34:30.481Z,100.00
2023-05-23T03:36:57.855Z,100.00
2023-05-23T03:39:25.549Z,100.00
2023-05-23T03:41:52.964Z,100.00
2023-05-23T03:44:20.824Z,100.00
2023-05-23T03:46:48.368Z,100.00
2023-05-23T03:49:17.354Z,100.00
2023-05-23T03:51:44.755Z,100.00
2023-05-23T03:54:17.535Z,100.00
2023-05-23T03:56:44.830Z,100.00
2023-05-23T03:59:12.081Z,100.00
2023-05-23T04:01:39.693Z,100.00
2023-05-23T04:04:07.240Z,100.00
2023-05-23T04:06:37.265Z,100.00
2023-05-23T04:09:06.318Z,100.00
2023-05-23T04:11:37.184Z,100.00
2023-05-23T04:14:04.470Z,100.00
2023-05-23T04:16:33.214Z,100.00
2023-05-23T04:19:04.810Z,100.00
2023-05-23T04:21:34.515Z,100.00
2023-05-23T04:24:07.067Z,100.00
2023-05-23T04:26:36.285Z,100.00
2023-05-23T04:29:06.134Z,100.00
2023-05-23T04:31:34.277Z,100.00
2023-05-23T04:34:02.651Z,100.00
2023-05-23T04:36:30.623Z,100.00
2023-05-23T04:38:57.981Z,100.00
2023-05-23T04:41:25.244Z,100.00
2023-05-23T04:44:06.186Z,100.00
2023-05-23T04:46:53.806Z,100.00
2023-05-23T04:49:25.528Z,100.00
2023-05-23T04:51:52.931Z,100.00
2023-05-23T04:54:28.178Z,100.00
2023-05-23T04:56:56.853Z,100.00
2023-05-23T04:59:26.709Z,100.00
2023-05-23T05:01:53.993Z,100.00
2023-05-23T05:04:23.377Z,100.00
2023-05-23T05:06:52.541Z,100.00
2023-05-23T05:09:20.008Z,100.00
2023-05-23T05:11:47.301Z,100.00
2023-05-23T05:14:15.453Z,100.00
2023-05-23T05:16:42.893Z,100.00
2023-05-23T05:19:11.024Z,100.00
2023-05-23T05:21:38.508Z,100.00
2023-05-23T05:24:05.951Z,100.00
2023-05-23T05:26:33.539Z,100.00
2023-05-23T05:29:00.899Z,100.00
2023-05-23T05:31:29.154Z,100.00
2023-05-23T05:33:56.429Z,100.00
2023-05-23T05:36:23.794Z,100.00
2023-05-23T05:38:51.316Z,100.00
2023-05-23T05:41:20.554Z,100.00
2023-05-23T05:43:50.972Z,100.00
2023-05-23T05:46:18.680Z,100.00
2023-05-23T05:48:47.351Z,100.00
2023-05-23T05:51:16.285Z,100.00
2023-05-23T05:53:43.773Z,100.00
2023-05-23T05:56:11.118Z,100.00
2023-05-23T05:58:39.860Z,100.00
2023-05-23T06:01:14.615Z,100.00
2023-05-23T06:03:42.939Z,100.00
2023-05-23T06:06:10.449Z,100.00
2023-05-23T06:08:39.864Z,100.00
2023-05-23T06:11:12.020Z,100.00
2023-05-23T06:13:39.528Z,100.00
2023-05-23T06:16:07.286Z,100.00
2023-05-23T06:18:34.570Z,100.00
2023-05-23T06:21:01.781Z,100.00
2023-05-23T06:23:29.140Z,100.00
2023-05-23T06:25:59.209Z,100.00
2023-05-23T06:28:26.453Z,100.00
2023-05-23T06:30:53.655Z,100.00
2023-05-23T06:33:20.902Z,100.00
2023-05-23T06:35:49.580Z,100.00
2023-05-23T06:38:17.892Z,100.00
2023-05-23T06:40:45.307Z,100.00
2023-05-23T06:43:13.701Z,100.00
2023-05-23T06:45:48.910Z,100.00
2023-05-23T06:48:16.350Z,100.00
2023-05-23T06:50:44.831Z,100.00
2023-05-23T06:53:12.732Z,100.00
2023-05-23T06:55:41.396Z,100.00
2023-05-23T06:58:11.979Z,100.00
2023-05-23T07:00:39.576Z,100.00
2023-05-23T07:03:16.704Z,100.00
2023-05-23T07:05:44.693Z,100.00
2023-05-23T07:08:13.084Z,100.00
2023-05-23T07:10:43.961Z,100.00
2023-05-23T07:13:31.594Z,100.00
2023-05-23T07:15:59.596Z,100.00
2023-05-23T07:18:27.384Z,100.00
2023-05-23T07:20:55.408Z,100.00
2023-05-23T07:23:24.490Z,100.00
2023-05-23T07:26:02.044Z,100.00
2023-05-23T07:28:49.394Z,100.00
2023-05-23T07:31:17.662Z,100.00
2023-05-23T07:33:45.274Z,100.00
2023-05-23T07:36:18.007Z,100.00
2023-05-23T07:38:45.996Z,100.00
2023-05-23T07:41:13.233Z,100.00
2023-05-23T07:43:41.385Z,100.00
2023-05-23T07:46:09.173Z,100.00
2023-05-23T07:48:38.048Z,100.00
2023-05-23T07:51:06.071Z,100.00
2023-05-23T07:53:34.912Z,100.00
2023-05-23T07:56:03.883Z,100.00
2023-05-23T07:58:36.151Z,100.00
2023-05-23T08:01:03.638Z,100.00
2023-05-23T08:03:54.320Z,100.00
2023-05-23T08:06:31.836Z,100.00
2023-05-23T08:09:02.136Z,100.00
2023-05-23T08:11:31.131Z,100.00
2023-05-23T08:14:01.206Z,100.00
2023-05-23T08:16:38.782Z,100.00
2023-05-23T08:19:17.660Z,100.00
2023-05-23T08:21:45.981Z,100.00
2023-05-23T08:24:14.998Z,100.00
2023-05-23T08:26:43.314Z,100.00
2023-05-23T08:29:13.048Z,100.00
2023-05-23T08:31:41.679Z,100.00
2023-05-23T08:34:09.900Z,100.00
2023-05-23T08:36:39.967Z,100.00
2023-05-23T08:39:11.221Z,100.00
2023-05-23T08:41:46.510Z,100.00
2023-05-23T08:44:14.588Z,100.00
2023-05-23T08:46:51.112Z,100.00
2023-05-23T08:49:38.840Z,100.00
2023-05-23T08:52:10.444Z,100.00
2023-05-23T08:54:38.151Z,100.00
2023-05-23T08:57:05.795Z,100.00
2023-05-23T08:59:39.995Z,100.00
2023-05-23T09:02:13.770Z,100.00
2023-05-23T09:04:41.378Z,100.00
2023-05-23T09:07:19.689Z,100.00
2023-05-23T09:09:48.751Z,100.00
2023-05-23T09:12:17.261Z,100.00
2023-05-23T09:14:47.159Z,100.00
2023-05-23T09:17:21.408Z,100.00
2023-05-23T09:19:48.924Z,100.00
2023-05-23T09:22:39.098Z,100.00
2023-05-23T09:25:15.085Z,100.00
2023-05-23T09:27:47.582Z,100.00
2023-05-23T09:30:16.139Z,100.00
2023-05-23T09:32:44.730Z,100.00
2023-05-23T09:35:14.129Z,100.00
2023-05-23T09:37:49.060Z,100.00
2023-05-23T09:40:16.831Z,100.00
2023-05-23T09:42:54.430Z,100.00
2023-05-23T09:45:21.860Z,100.00
2023-05-23T09:47:53.326Z,100.00
2023-05-23T09:50:22.269Z,100.00
2023-05-23T09:52:51.117Z,100.00
2023-05-23T09:55:19.544Z,100.00
2023-05-23T09:57:54.479Z,100.00
2023-05-23T10:00:21.874Z,100.00
2023-05-23T10:03:15.236Z,100.00
2023-05-23T10:05:51.876Z,100.00
2023-05-23T10:08:40.162Z,100.00
2023-05-23T10:11:13.491Z,100.00
2023-05-23T10:13:47.173Z,100.00
2023-05-23T10:16:48.223Z,100.00
2023-05-23T10:19:36.038Z,100.00
2023-05-23T10:22:10.991Z,100.00
2023-05-23T10:24:38.813Z,100.00
2023-05-23T10:27:07.710Z,100.00
2023-05-23T10:29:36.536Z,100.00
2023-05-23T10:32:06.341Z,100.00
2023-05-23T10:34:54.439Z,100.00
2023-05-23T10:37:50.684Z,100.00
2023-05-23T10:41:06.484Z,100.00
2023-05-23T10:44:18.509Z,100.00
2023-05-23T10:47:04.200Z,100.00
2023-05-23T10:49:42.695Z,100.00
2023-05-23T10:52:13.949Z,100.00
2023-05-23T10:54:48.953Z,100.00
2023-05-23T10:57:29.806Z,100.00
2023-05-23T10:59:57.254Z,100.00
2023-05-23T11:02:29.750Z,100.00
2023-05-23T11:05:21.142Z,100.00
2023-05-23T11:08:11.972Z,100.00
2023-05-23T11:11:02.914Z,100.00
2023-05-23T11:14:02.631Z,100.00
2023-05-23T11:16:51.188Z,100.00
2023-05-23T11:19:21.980Z,100.00
2023-05-23T11:22:01.917Z,100.00
2023-05-23T11:24:52.707Z,89.20
2023-05-23T11:27:36.219Z,88.83
2023-05-23T11:30:15.739Z,98.96
2023-05-23T11:32:52.560Z,78.68
2023-05-23T11:35:21.196Z,90.67
2023-05-23T11:37:49.025Z,95.17
2023-05-23T11:40:48.375Z,88.41
2023-05-23T11:43:19.963Z,77.31
2023-05-23T11:45:47.341Z,72.81
2023-05-23T11:48:17.677Z,67.73
2023-05-23T11:50:53.787Z,65.73
2023-05-23T11:53:25.531Z,72.62
2023-05-23T11:56:00.388Z,65.71
2023-05-23T11:58:39.556Z,57.79
2023-05-23T12:01:12.885Z,55.94
2023-05-23T12:03:49.851Z,58.20
2023-05-23T12:06:21.822Z,47.72
2023-05-23T12:08:49.095Z,54.43
2023-05-23T12:11:16.406Z,72.64
2023-05-23T12:13:44.757Z,61.04
2023-05-23T12:16:15.702Z,81.49
2023-05-23T12:18:43.573Z,73.94
2023-05-23T12:21:11.416Z,77.23
2023-05-23T12:23:41.986Z,62.18
2023-05-23T12:26:12.281Z,69.55
2023-05-23T12:28:43.479Z,73.29
2023-05-23T12:31:21.830Z,77.94
2023-05-23T12:33:52.819Z,78.56
2023-05-23T12:36:26.366Z,60.01
2023-05-23T12:38:54.174Z,49.53
2023-05-23T12:41:22.132Z,41.75
2023-05-23T12:43:55.940Z,46.15
2023-05-23T12:46:26.071Z,52.64
2023-05-23T12:48:54.756Z,52.74
2023-05-23T12:51:22.285Z,44.48
2023-05-23T12:53:49.711Z,41.56
2023-05-23T12:56:17.032Z,40.61
2023-05-23T12:58:44.277Z,47.59
2023-05-23T13:01:11.589Z,56.03
2023-05-23T13:03:39.053Z,50.22
2023-05-23T13:06:07.225Z,39.38
2023-05-23T13:08:34.469Z,41.85
2023-05-23T13:11:01.791Z,43.14
2023-05-23T13:13:29.804Z,45.80
2023-05-23T13:15:57.368Z,45.79
2023-05-23T13:18:25.091Z,41.00
2023-05-23T13:20:52.882Z,41.70
2023-05-23T13:23:20.289Z,46.20
2023-05-23T13:25:47.817Z,37.22
2023-05-23T13:28:15.026Z,38.52
2023-05-23T13:30:44.168Z,41.95
2023-05-23T13:33:13.206Z,43.52
2023-05-23T13:35:40.829Z,44.22
2023-05-23T13:38:08.175Z,39.92
2023-05-23T13:40:35.593Z,42.65
2023-05-23T13:43:02.983Z,45.91
2023-05-23T13:45:31.008Z,42.00
2023-05-23T13:47:58.310Z,41.80
2023-05-23T13:50:26.204Z,40.90
2023-05-23T13:52:53.586Z,43.21
2023-05-23T13:55:21.233Z,38.22
2023-05-23T13:57:48.463Z,41.59
2023-05-23T14:00:16.372Z,40.37
2023-05-23T14:02:43.962Z,44.74
2023-05-23T14:05:11.113Z,44.37
2023-05-23T14:07:38.608Z,46.32
2023-05-23T14:10:07.140Z,50.00
2023-05-23T14:12:34.351Z,46.35
2023-05-23T14:15:01.692Z,53.91
2023-05-23T14:17:29.446Z,49.23
2023-05-23T14:19:56.734Z,49.47
2023-05-23T14:22:23.920Z,52.61
2023-05-23T14:24:51.169Z,54.61
2023-05-23T14:27:18.987Z,50.13
2023-05-23T14:29:47.382Z,48.02
2023-05-23T14:32:14.932Z,55.33
2023-05-23T14:34:42.196Z,53.21
2023-05-23T14:37:09.388Z,50.07
2023-05-23T14:39:36.690Z,55.70
2023-05-23T14:42:04.615Z,50.48
2023-05-23T14:44:31.849Z,50.25
2023-05-23T14:46:59.099Z,55.84
2023-05-23T14:49:26.375Z,52.80
2023-05-23T14:51:53.588Z,44.75
2023-05-23T14:54:20.849Z,52.10
2023-05-23T14:56:49.429Z,47.45
2023-05-23T14:59:18.426Z,49.11
2023-05-23T15:01:45.690Z,55.95
2023-05-23T15:04:14.147Z,49.82
2023-05-23T15:06:42.811Z,57.97
2023-05-23T15:09:10.670Z,56.44
2023-05-23T15:11:38.936Z,60.52
2023-05-23T15:14:06.613Z,57.09
2023-05-23T15:16:36.609Z,56.72
2023-05-23T15:19:05.728Z,56.29
2023-05-23T15:21:33.015Z,48.57
2023-05-23T15:24:00.419Z,57.04
2023-05-23T15:26:28.182Z,58.49
2023-05-23T15:28:55.589Z,50.10
2023-05-23T15:31:23.577Z,55.07
2023-05-23T15:33:50.980Z,48.59
2023-05-23T15:36:18.218Z,49.02
2023-05-23T15:38:45.529Z,48.70
2023-05-23T15:41:13.015Z,56.14
2023-05-23T15:43:40.254Z,53.69
2023-05-23T15:46:07.541Z,49.99
2023-05-23T15:48:34.856Z,53.92
2023-05-23T15:51:02.056Z,52.02
2023-05-23T15:53:34.307Z,50.02
2023-05-23T15:56:04.708Z,52.59
2023-05-23T15:58:32.369Z,50.06
2023-05-23T16:00:59.430Z,48.69
2023-05-23T16:03:26.644Z,49.07
2023-05-23T16:05:53.871Z,39.10
2023-05-23T16:08:21.170Z,42.15
2023-05-23T16:10:48.345Z,50.14
2023-05-23T16:13:17.831Z,47.67
2023-05-23T16:15:45.515Z,36.89
2023-05-23T16:18:12.745Z,39.90
2023-05-23T16:20:39.972Z,42.26
2023-05-23T16:23:07.170Z,46.12
2023-05-23T16:25:34.775Z,45.62
2023-05-23T16:28:02.226Z,49.61
2023-05-23T16:30:29.401Z,48.42
2023-05-23T16:32:56.686Z,49.60
2023-05-23T16:35:24.008Z,45.37
2023-05-23T16:37:51.177Z,49.17
2023-05-23T16:40:19.676Z,50.82
2023-05-23T16:42:47.043Z,49.00
2023-05-23T16:45:14.245Z,47.23
2023-05-23T16:47:41.676Z,55.57
2023-05-23T16:50:09.622Z,55.68
2023-05-23T16:52:36.933Z,58.80
2023-05-23T16:55:05.228Z,57.05
2023-05-23T16:57:32.476Z,57.75
2023-05-23T16:59:59.704Z,59.32
2023-05-23T17:02:27.057Z,64.47
2023-05-23T17:04:55.676Z,63.78
2023-05-23T17:07:22.875Z,67.24
2023-05-23T17:09:50.048Z,68.56
2023-05-23T17:12:17.274Z,72.45
2023-05-23T17:14:44.449Z,71.11
2023-05-23T17:17:11.652Z,73.09
2023-05-23T17:19:39.016Z,74.60
2023-05-23T17:22:07.786Z,76.67
2023-05-23T17:24:36.537Z,81.43
2023-05-23T17:27:04.146Z,81.09
2023-05-23T17:29:31.963Z,80.20
2023-05-23T17:31:59.212Z,84.66
2023-05-23T17:34:26.502Z,84.22
2023-05-23T17:36:53.707Z,88.84
2023-05-23T17:39:20.891Z,88.55
2023-05-23T17:41:48.134Z,88.28
2023-05-23T17:44:15.325Z,88.10
2023-05-23T17:46:42.617Z,88.84
2023-05-23T17:49:09.874Z,89.46
2023-05-23T17:51:37.030Z,90.38
2023-05-23T17:54:04.583Z,91.35
2023-05-23T17:56:31.979Z,92.91
2023-05-23T17:59:01.348Z,94.05
2023-05-23T18:01:29.114Z,94.13
2023-05-23T18:03:56.441Z,95.68
2023-05-23T18:06:23.646Z,96.22
2023-05-23T18:08:50.936Z,96.35
2023-05-23T18:11:18.218Z,99.55
2023-05-23T18:13:45.826Z,100.00
2023-05-23T18:16:13.075Z,100.00
2023-05-23T18:18:40.635Z,100.00
2023-05-23T18:21:08.652Z,100.00
2023-05-23T18:23:35.843Z,100.00
2023-05-23T18:26:03.214Z,100.00
2023-05-23T18:28:30.675Z,100.00
2023-05-23T18:30:57.848Z,100.00
2023-05-23T18:33:25.124Z,100.00
2023-05-23T18:35:52.488Z,100.00
2023-05-23T18:38:19.867Z,100.00
2023-05-23T18:40:47.094Z,100.00
2023-05-23T18:43:17.228Z,100.00
2023-05-23T18:45:44.685Z,100.00
2023-05-23T18:48:12.933Z,100.00
2023-05-23T18:50:40.327Z,100.00
2023-05-23T18:53:07.753Z,100.00
2023-05-23T18:55:36.308Z,100.00
2023-05-23T18:58:03.617Z,100.00
2023-05-23T19:00:30.898Z,100.00
2023-05-23T19:02:58.179Z,100.00
2023-05-23T19:05:26.860Z,100.00
2023-05-23T19:07:54.081Z,100.00
2023-05-23T19:10:21.933Z,100.00
2023-05-23T19:12:49.127Z,100.00
2023-05-23T19:15:16.314Z,100.00
2023-05-23T19:17:43.524Z,100.00
2023-05-23T19:20:12.049Z,100.00
2023-05-23T19:22:50.939Z,100.00
2023-05-23T19:25:21.471Z,100.00
2023-05-23T19:27:48.818Z,100.00
2023-05-23T19:30:16.686Z,100.00
2023-05-23T19:32:43.969Z,100.00
2023-05-23T19:35:11.994Z,100.00
2023-05-23T19:37:41.279Z,100.00
2023-05-23T19:40:09.788Z,100.00
2023-05-23T19:42:37.115Z,100.00
2023-05-23T19:45:05.151Z,100.00
2023-05-23T19:47:32.350Z,100.00
2023-05-23T19:49:59.530Z,100.00
2023-05-23T19:52:26.752Z,100.00
2023-05-23T19:54:54.291Z,100.00
2023-05-23T19:57:21.457Z,100.00
2023-05-23T19:59:48.661Z,100.00
2023-05-23T20:02:15.877Z,100.00
2023-05-23T20:04:43.166Z,100.00
2023-05-23T20:07:10.947Z,100.00
2023-05-23T20:09:38.149Z,100.00
2023-05-23T20:12:06.108Z,100.00
2023-05-23T20:14:34.045Z,100.00
2023-05-23T20:17:01.257Z,100.00
2023-05-23T20:19:28.486Z,100.00
2023-05-23T20:21:56.715Z,100.00
2023-05-23T20:24:24.273Z,100.00
2023-05-23T20:26:51.598Z,100.00
2023-05-23T20:29:18.783Z,100.00
2023-05-23T20:31:46.288Z,100.00
2023-05-23T20:34:13.699Z,100.00
2023-05-23T20:36:40.885Z,100.00
2023-05-23T20:39:09.613Z,100.00
2023-05-23T20:41:36.900Z,100.00
2023-05-23T20:44:04.082Z,100.00
2023-05-23T20:46:31.336Z,100.00
2023-05-23T20:48:59.404Z,100.00
2023-05-23T20:51:26.625Z,100.00
2023-05-23T20:53:53.814Z,100.00
2023-05-23T20:56:21.544Z,100.00
2023-05-23T20:58:49.039Z,100.00
2023-05-23T21:01:16.617Z,100.00
2023-05-23T21:03:43.977Z,100.00
2023-05-23T21:06:11.162Z,100.00
2023-05-23T21:08:38.354Z,100.00
2023-05-23T21:11:05.730Z,100.00
2023-05-23T21:13:32.934Z,100.00
2023-05-23T21:16:00.316Z,100.00
2023-05-23T21:18:27.578Z,100.00
2023-05-23T21:20:54.800Z,100.00
2023-05-23T21:23:22.018Z,100.00
2023-05-23T21:25:49.244Z,100.00
2023-05-23T21:28:16.523Z,100.00
2023-05-23T21:30:44.362Z,100.00
2023-05-23T21:33:12.587Z,100.00
2023-05-23T21:35:39.944Z,100.00
2023-05-23T21:38:07.379Z,100.00
2023-05-23T21:40:34.552Z,100.00
2023-05-23T21:43:01.718Z,100.00
2023-05-23T21:45:28.985Z,100.00
2023-05-23T21:47:56.287Z,100.00
2023-05-23T21:50:23.548Z,100.00
2023-05-23T21:52:50.727Z,100.00
2023-05-23T21:55:17.926Z,100.00
2023-05-23T21:57:45.318Z,100.00
2023-05-23T22:00:13.643Z,100.00
2023-05-23T22:02:41.320Z,100.00
2023-05-23T22:05:09.100Z,100.00
2023-05-23T22:07:36.631Z,100.00
2023-05-23T22:10:04.099Z,100.00
2023-05-23T22:12:32.163Z,100.00
2023-05-23T22:14:59.439Z,100.00
2023-05-23T22:17:26.757Z,100.00
2023-05-23T22:19:55.737Z,100.00
2023-05-23T22:22:23.095Z,100.00
2023-05-23T22:24:50.327Z,100.00
2023-05-23T22:27:17.784Z,100.00
2023-05-23T22:29:45.116Z,100.00
2023-05-23T22:32:12.472Z,100.00
2023-05-23T22:34:39.671Z,100.00
2023-05-23T22:37:07.273Z,100.00
2023-05-23T22:39:34.525Z,100.00
2023-05-23T22:42:01.966Z,100.00
2023-05-23T22:44:29.588Z,100.00
2023-05-23T22:46:59.749Z,100.00
2023-05-23T22:49:30.007Z,100.00
2023-05-23T22:51:57.969Z,100.00
2023-05-23T22:54:25.207Z,100.00
2023-05-23T22:56:53.024Z,100.00
2023-05-23T22:59:20.443Z,100.00
2023-05-23T23:01:47.727Z,100.00
2023-05-23T23:04:15.072Z,100.00
2023-05-23T23:06:43.241Z,100.00
2023-05-23T23:09:10.487Z,100.00
2023-05-23T23:11:37.679Z,100.00
2023-05-23T23:14:04.996Z,100.00
2023-05-23T23:16:32.307Z,100.00
2023-05-23T23:18:59.557Z,100.00
2023-05-23T23:21:26.853Z,100.00
2023-05-23T23:23:54.110Z,100.00
2023-05-23T23:26:22.077Z,100.00
2023-05-23T23:28:49.281Z,100.00
2023-05-23T23:31:16.638Z,100.00
2023-05-23T23:33:43.885Z,100.00
2023-05-23T23:36:11.163Z,100.00
2023-05-23T23:38:38.507Z,100.00
2023-05-23T23:41:05.793Z,100.00
2023-05-23T23:43:33.032Z,100.00
2023-05-23T23:46:00.378Z,100.00
2023-05-23T23:48:27.619Z,100.00
2023-05-23T23:50:54.800Z,100.00
2023-05-23T23:53:22.043Z,100.00
2023-05-23T23:55:50.106Z,100.00
2023-05-23T23:58:17.477Z,100.00
